createdAt,value
2019-02-17T00:01:19.757Z,99.90
2019-02-17T00:03:48.356Z,99.90
2019-02-17T00:06:17.032Z,99.90
2019-02-17T00:08:45.677Z,99.90
2019-02-17T00:11:14.313Z,99.90
2019-02-17T00:13:42.909Z,99.90
2019-02-17T00:16:11.554Z,99.90
2019-02-17T00:18:40.167Z,99.90
2019-02-17T00:21:08.731Z,99.90
2019-02-17T00:23:37.392Z,99.90
2019-02-17T00:26:06.025Z,99.90
2019-02-17T00:28:34.615Z,99.90
2019-02-17T00:31:03.253Z,99.90
2019-02-17T00:33:31.914Z,99.90
2019-02-17T00:36:00.549Z,99.90
2019-02-17T00:38:29.186Z,99.90
2019-02-17T00:40:57.850Z,99.90
2019-02-17T00:43:26.428Z,99.90
2019-02-17T00:45:55.097Z,99.90
2019-02-17T00:48:23.656Z,99.90
2019-02-17T00:50:52.258Z,99.90
2019-02-17T00:53:20.861Z,99.90
2019-02-17T00:55:49.426Z,99.90
2019-02-17T00:58:18.026Z,99.90
2019-02-17T01:00:46.733Z,99.90
2019-02-17T01:03:15.337Z,99.90
2019-02-17T01:05:44.049Z,99.90
2019-02-17T01:08:12.640Z,99.90
2019-02-17T01:10:41.273Z,99.90
2019-02-17T01:13:09.869Z,99.90
2019-02-17T01:15:38.429Z,99.90
2019-02-17T01:18:07.107Z,99.90
2019-02-17T01:20:35.666Z,99.90
2019-02-17T01:23:04.343Z,99.90
2019-02-17T01:25:32.982Z,99.90
2019-02-17T01:28:01.578Z,99.90
2019-02-17T01:30:30.143Z,99.90
2019-02-17T01:32:58.749Z,99.90
2019-02-17T01:35:27.381Z,99.90
2019-02-17T01:37:58.249Z,99.90
2019-02-17T01:40:26.325Z,99.90
2019-02-17T01:42:54.990Z,99.90
2019-02-17T01:45:23.822Z,99.90
2019-02-17T01:48:11.766Z,99.90
2019-02-17T01:50:40.433Z,99.90
2019-02-17T01:53:09.098Z,99.90
2019-02-17T01:55:37.740Z,99.90
2019-02-17T01:58:06.464Z,99.90
2019-02-17T02:00:35.166Z,99.90
2019-02-17T02:03:03.799Z,99.90
2019-02-17T02:05:32.396Z,99.90
2019-02-17T02:08:01.599Z,99.90
2019-02-17T02:10:30.267Z,99.90
2019-02-17T02:12:58.904Z,99.90
2019-02-17T02:15:27.577Z,99.90
2019-02-17T02:17:56.222Z,99.90
2019-02-17T02:20:25.154Z,99.90
2019-02-17T02:22:53.784Z,99.90
2019-02-17T02:25:22.437Z,99.90
2019-02-17T02:27:51.067Z,99.90
2019-02-17T02:30:19.655Z,99.90
2019-02-17T02:32:48.283Z,99.90
2019-02-17T02:35:16.945Z,99.90
2019-02-17T02:37:45.586Z,99.90
2019-02-17T02:40:14.220Z,99.90
2019-02-17T02:42:42.769Z,99.90
2019-02-17T02:45:11.878Z,99.90
2019-02-17T02:47:40.627Z,99.90
2019-02-17T02:50:11.536Z,99.90
2019-02-17T02:52:40.286Z,99.90
2019-02-17T02:55:09.395Z,99.90
2019-02-17T02:57:38.067Z,99.90
2019-02-17T03:00:14.014Z,99.90
2019-02-17T03:02:42.663Z,99.90
2019-02-17T03:05:11.463Z,99.90
2019-02-17T03:07:40.159Z,99.90
2019-02-17T03:10:10.168Z,99.90
2019-02-17T03:12:38.768Z,99.90
2019-02-17T03:15:08.769Z,99.90
2019-02-17T03:17:37.433Z,99.90
2019-02-17T03:20:08.638Z,99.90
2019-02-17T03:22:37.238Z,99.90
2019-02-17T03:25:07.241Z,99.90
2019-02-17T03:27:35.796Z,99.90
2019-02-17T03:30:06.623Z,99.90
2019-02-17T03:32:35.330Z,99.90
2019-02-17T03:35:04.070Z,99.90
2019-02-17T03:37:32.687Z,99.90
2019-02-17T03:40:01.286Z,99.90
2019-02-17T03:42:29.855Z,99.90
2019-02-17T03:44:58.521Z,99.90
2019-02-17T03:47:27.087Z,99.90
2019-02-17T03:49:55.775Z,99.90
2019-02-17T03:52:24.417Z,99.90
2019-02-17T03:54:53.085Z,99.90
2019-02-17T03:57:21.669Z,99.90
2019-02-17T03:59:50.250Z,99.90
2019-02-17T04:02:18.810Z,99.90
2019-02-17T04:04:47.546Z,99.90
2019-02-17T04:07:16.223Z,99.90
2019-02-17T04:09:44.928Z,99.90
2019-02-17T04:12:13.490Z,99.90
2019-02-17T04:14:42.162Z,99.90
2019-02-17T04:17:10.807Z,99.90
2019-02-17T04:19:39.547Z,99.90
2019-02-17T04:22:08.110Z,99.90
2019-02-17T04:24:36.709Z,99.90
2019-02-17T04:27:05.273Z,99.90
2019-02-17T04:29:33.870Z,99.90
2019-02-17T04:32:02.437Z,99.90
2019-02-17T04:34:31.034Z,99.90
2019-02-17T04:36:59.673Z,99.90
2019-02-17T04:39:28.335Z,99.90
2019-02-17T04:41:57.001Z,99.90
2019-02-17T04:44:25.638Z,99.90
2019-02-17T04:46:54.378Z,99.90
2019-02-17T04:49:22.936Z,99.90
2019-02-17T04:51:51.678Z,99.90
2019-02-17T04:54:20.241Z,99.90
2019-02-17T04:56:48.841Z,99.90
2019-02-17T04:59:17.406Z,99.90
2019-02-17T05:01:46.078Z,99.90
2019-02-17T05:04:14.781Z,99.90
2019-02-17T05:06:43.487Z,99.90
2019-02-17T05:09:12.211Z,99.90
2019-02-17T05:11:40.787Z,99.90
2019-02-17T05:14:09.385Z,99.90
2019-02-17T05:16:38.044Z,99.90
2019-02-17T05:19:06.713Z,99.90
2019-02-17T05:21:35.347Z,99.90
2019-02-17T05:24:04.099Z,99.90
2019-02-17T05:26:32.674Z,99.90
2019-02-17T05:29:01.266Z,99.90
2019-02-17T05:31:29.842Z,99.90
2019-02-17T05:33:58.406Z,99.90
2019-02-17T05:36:27.014Z,99.90
2019-02-17T05:38:55.649Z,99.90
2019-02-17T05:41:24.382Z,99.90
2019-02-17T05:43:52.954Z,99.90
2019-02-17T05:46:21.549Z,99.90
2019-02-17T05:48:50.181Z,99.90
2019-02-17T05:51:18.858Z,99.90
2019-02-17T05:53:47.466Z,99.90
2019-02-17T05:56:16.074Z,99.90
2019-02-17T05:58:44.717Z,99.90
2019-02-17T06:01:13.347Z,99.90
2019-02-17T06:03:41.950Z,99.90
2019-02-17T06:06:10.600Z,99.90
2019-02-17T06:08:39.192Z,99.90
2019-02-17T06:11:07.757Z,99.90
2019-02-17T06:13:36.430Z,99.90
2019-02-17T06:16:05.144Z,99.90
2019-02-17T06:18:33.778Z,99.90
2019-02-17T06:21:02.360Z,99.90
2019-02-17T06:23:30.933Z,99.90
2019-02-17T06:25:59.684Z,99.90
2019-02-17T06:28:28.422Z,99.90
2019-02-17T06:30:56.999Z,99.90
2019-02-17T06:33:25.670Z,99.90
2019-02-17T06:35:54.368Z,99.90
2019-02-17T06:38:22.968Z,99.90
2019-02-17T06:40:51.536Z,99.90
2019-02-17T06:43:20.154Z,99.90
2019-02-17T06:45:48.805Z,99.90
2019-02-17T06:48:17.402Z,99.90
2019-02-17T06:50:46.117Z,99.90
2019-02-17T06:53:14.777Z,99.90
2019-02-17T06:55:51.071Z,99.90
2019-02-17T06:58:19.665Z,99.90
2019-02-17T07:00:48.300Z,99.90
2019-02-17T07:03:17.017Z,99.90
2019-02-17T07:05:59.442Z,99.90
2019-02-17T07:08:28.102Z,99.90
2019-02-17T07:10:56.741Z,99.90
2019-02-17T07:13:25.305Z,99.90
2019-02-17T07:15:53.912Z,99.90
2019-02-17T07:18:22.469Z,99.90
2019-02-17T07:20:51.125Z,99.90
2019-02-17T07:23:19.712Z,99.90
2019-02-17T07:25:48.309Z,99.90
2019-02-17T07:28:16.882Z,99.90
2019-02-17T07:30:45.553Z,99.90
2019-02-17T07:33:14.266Z,99.90
2019-02-17T07:35:43.011Z,99.90
2019-02-17T07:38:11.646Z,99.90
2019-02-17T07:40:40.694Z,99.90
2019-02-17T07:43:09.334Z,99.90
2019-02-17T07:45:37.994Z,99.90
2019-02-17T07:48:06.566Z,99.90
2019-02-17T07:50:35.163Z,99.90
2019-02-17T07:53:03.871Z,99.90
2019-02-17T07:55:32.606Z,99.90
2019-02-17T07:58:01.243Z,99.90
2019-02-17T08:00:29.912Z,99.90
2019-02-17T08:02:58.611Z,99.90
2019-02-17T08:05:27.314Z,99.90
2019-02-17T08:07:56.002Z,99.90
2019-02-17T08:10:24.576Z,99.90
2019-02-17T08:12:53.229Z,99.90
2019-02-17T08:15:21.930Z,99.90
2019-02-17T08:17:50.601Z,99.90
2019-02-17T08:20:19.240Z,99.90
2019-02-17T08:22:47.830Z,99.90
2019-02-17T08:25:21.712Z,99.90
2019-02-17T08:27:46.777Z,99.90
2019-02-17T08:30:15.412Z,99.90
2019-02-17T08:32:44.315Z,99.90
2019-02-17T08:35:13.077Z,99.90
2019-02-17T08:37:41.657Z,99.90
2019-02-17T08:40:11.067Z,99.90
2019-02-17T08:42:39.710Z,99.90
2019-02-17T08:45:09.833Z,99.90
2019-02-17T08:47:38.390Z,99.90
2019-02-17T08:50:09.698Z,99.90
2019-02-17T08:52:38.405Z,99.90
2019-02-17T08:55:09.510Z,99.90
2019-02-17T08:57:38.247Z,99.90
2019-02-17T09:00:09.950Z,99.90
2019-02-17T09:02:40.672Z,99.90
2019-02-17T09:05:08.974Z,99.90
2019-02-17T09:07:37.598Z,99.90
2019-02-17T09:10:12.085Z,99.90
2019-02-17T09:12:40.727Z,99.90
2019-02-17T09:15:13.220Z,99.90
2019-02-17T09:17:41.950Z,99.50
2019-02-17T09:20:11.593Z,96.40
2019-02-17T09:22:40.228Z,94.00
2019-02-17T09:25:11.233Z,90.00
2019-02-17T09:27:39.976Z,88.40
2019-02-17T09:30:11.676Z,80.40
2019-02-17T09:32:40.312Z,78.10
2019-02-17T09:35:09.017Z,65.00
2019-02-17T09:37:37.619Z,59.10
2019-02-17T09:40:09.254Z,52.70
2019-02-17T09:42:37.965Z,49.40
2019-02-17T09:45:12.191Z,45.20
2019-02-17T09:47:40.903Z,44.20
2019-02-17T09:50:14.379Z,43.30
2019-02-17T09:52:43.088Z,41.90
2019-02-17T09:55:11.990Z,39.50
2019-02-17T09:57:40.730Z,37.80
2019-02-17T10:00:14.407Z,34.00
2019-02-17T10:02:43.067Z,35.90
2019-02-17T10:05:12.974Z,38.40
2019-02-17T10:07:41.637Z,35.70
2019-02-17T10:10:13.270Z,36.20
2019-02-17T10:12:41.979Z,35.30
2019-02-17T10:15:12.615Z,36.90
2019-02-17T10:17:41.247Z,37.50
2019-02-17T10:20:12.451Z,36.80
2019-02-17T10:22:41.015Z,35.30
2019-02-17T10:25:10.188Z,35.50
2019-02-17T10:27:38.813Z,36.10
2019-02-17T10:30:10.489Z,35.60
2019-02-17T10:32:39.327Z,34.20
2019-02-17T10:35:08.395Z,35.00
2019-02-17T10:37:37.029Z,34.60
2019-02-17T10:40:11.218Z,34.90
2019-02-17T10:42:39.780Z,33.30
2019-02-17T10:45:09.882Z,34.10
2019-02-17T10:47:38.513Z,34.90
2019-02-17T10:50:09.723Z,35.10
2019-02-17T10:52:38.354Z,35.90
2019-02-17T10:55:09.385Z,35.50
2019-02-17T10:57:38.018Z,35.40
2019-02-17T11:00:14.587Z,36.50
2019-02-17T11:02:47.209Z,36.80
2019-02-17T11:05:13.777Z,37.20
2019-02-17T11:07:42.826Z,37.70
2019-02-17T11:10:12.951Z,38.70
2019-02-17T11:12:41.631Z,38.50
2019-02-17T11:15:20.559Z,40.90
2019-02-17T11:17:49.280Z,41.20
2019-02-17T11:20:18.238Z,39.20
2019-02-17T11:22:46.945Z,40.50
2019-02-17T11:25:15.604Z,40.70
2019-02-17T11:27:44.227Z,40.40
2019-02-17T11:30:16.336Z,39.10
2019-02-17T11:32:45.021Z,39.20
2019-02-17T11:35:14.178Z,39.00
2019-02-17T11:37:45.061Z,37.00
2019-02-17T11:40:15.530Z,37.30
2019-02-17T11:42:44.454Z,37.90
2019-02-17T11:45:16.819Z,38.20
2019-02-17T11:47:45.529Z,40.00
2019-02-17T11:50:15.852Z,40.30
2019-02-17T11:52:46.309Z,39.70
2019-02-17T11:55:15.867Z,39.10
2019-02-17T11:57:45.295Z,41.70
2019-02-17T12:00:22.016Z,40.20
2019-02-17T12:02:53.121Z,40.70
2019-02-17T12:05:22.159Z,40.10
2019-02-17T12:07:51.166Z,40.10
2019-02-17T12:10:20.038Z,40.40
2019-02-17T12:12:48.790Z,41.00
2019-02-17T12:15:17.785Z,40.90
2019-02-17T12:17:46.515Z,39.70
2019-02-17T12:20:38.275Z,40.20
2019-02-17T12:23:08.873Z,40.40
2019-02-17T12:25:39.688Z,40.10
2019-02-17T12:28:10.511Z,39.90
2019-02-17T12:30:41.599Z,40.00
2019-02-17T12:33:18.359Z,41.10
2019-02-17T12:35:42.645Z,42.10
2019-02-17T12:38:11.377Z,41.50
2019-02-17T12:40:40.093Z,42.90
2019-02-17T12:43:08.703Z,43.90
2019-02-17T12:45:37.927Z,43.30
2019-02-17T12:48:06.626Z,43.70
2019-02-17T12:50:35.326Z,44.70
2019-02-17T12:53:04.219Z,45.00
2019-02-17T12:55:32.793Z,44.50
2019-02-17T12:58:01.462Z,45.40
2019-02-17T13:00:30.511Z,45.20
2019-02-17T13:02:59.258Z,45.50
2019-02-17T13:05:27.905Z,45.10
2019-02-17T13:07:56.658Z,45.10
2019-02-17T13:10:25.370Z,45.30
2019-02-17T13:12:54.225Z,46.30
2019-02-17T13:15:23.924Z,47.20
2019-02-17T13:17:53.197Z,47.50
2019-02-17T13:20:21.896Z,48.00
2019-02-17T13:22:50.458Z,48.70
2019-02-17T13:25:19.206Z,48.30
2019-02-17T13:27:48.160Z,48.80
2019-02-17T13:30:19.674Z,49.30
2019-02-17T13:32:48.706Z,48.80
2019-02-17T13:35:17.436Z,49.10
2019-02-17T13:37:47.170Z,48.90
2019-02-17T13:40:17.540Z,49.70
2019-02-17T13:42:47.148Z,50.30
2019-02-17T13:45:17.023Z,50.10
2019-02-17T13:47:45.919Z,50.00
2019-02-17T13:50:16.698Z,50.60
2019-02-17T13:52:45.573Z,51.00
2019-02-17T13:55:14.183Z,50.40
2019-02-17T13:57:42.922Z,50.90
2019-02-17T14:00:16.612Z,50.90
2019-02-17T14:02:45.371Z,49.90
2019-02-17T14:05:14.192Z,51.30
2019-02-17T14:07:42.939Z,50.20
2019-02-17T14:10:12.974Z,51.00
2019-02-17T14:12:41.624Z,50.10
2019-02-17T14:15:13.302Z,50.60
2019-02-17T14:17:41.984Z,50.30
2019-02-17T14:20:11.387Z,51.10
2019-02-17T14:22:40.523Z,51.00
2019-02-17T14:25:17.051Z,51.40
2019-02-17T14:27:45.884Z,51.60
2019-02-17T14:30:16.120Z,51.70
2019-02-17T14:32:45.581Z,51.30
2019-02-17T14:35:14.519Z,52.20
2019-02-17T14:37:43.599Z,52.20
2019-02-17T14:40:16.655Z,52.80
2019-02-17T14:42:45.494Z,53.80
2019-02-17T14:45:16.280Z,53.70
2019-02-17T14:47:45.134Z,54.20
2019-02-17T14:50:14.544Z,55.30
2019-02-17T14:52:44.390Z,56.00
2019-02-17T14:55:13.558Z,56.40
2019-02-17T14:57:42.441Z,57.70
2019-02-17T15:00:15.509Z,58.90
2019-02-17T15:02:45.371Z,59.50
2019-02-17T15:05:14.835Z,61.20
2019-02-17T15:07:51.773Z,62.30
2019-02-17T15:10:24.489Z,63.60
2019-02-17T15:12:53.379Z,65.30
2019-02-17T15:15:22.323Z,66.20
2019-02-17T15:17:51.433Z,67.30
2019-02-17T15:20:22.816Z,69.00
2019-02-17T15:22:52.446Z,70.70
2019-02-17T15:25:24.564Z,71.80
2019-02-17T15:27:55.410Z,72.70
2019-02-17T15:30:23.897Z,74.00
2019-02-17T15:32:52.983Z,75.50
2019-02-17T15:35:22.457Z,77.60
2019-02-17T15:37:51.606Z,77.50
2019-02-17T15:40:20.512Z,78.70
2019-02-17T15:42:49.356Z,79.50
2019-02-17T15:45:18.264Z,80.40
2019-02-17T15:47:47.140Z,81.40
2019-02-17T15:50:16.501Z,82.50
2019-02-17T15:52:47.108Z,83.40
2019-02-17T15:55:16.114Z,84.60
2019-02-17T15:57:44.911Z,85.60
2019-02-17T16:00:17.127Z,87.20
2019-02-17T16:02:45.859Z,88.10
2019-02-17T16:05:14.667Z,89.00
2019-02-17T16:07:43.609Z,90.00
2019-02-17T16:10:14.473Z,90.50
2019-02-17T16:12:43.388Z,91.00
2019-02-17T16:15:20.476Z,91.50
2019-02-17T16:17:50.533Z,92.00
2019-02-17T16:20:19.631Z,92.60
2019-02-17T16:22:48.360Z,92.90
2019-02-17T16:25:17.201Z,93.30
2019-02-17T16:27:46.091Z,93.70
2019-02-17T16:30:19.896Z,94.40
2019-02-17T16:32:48.816Z,94.60
2019-02-17T16:35:17.705Z,94.90
2019-02-17T16:37:46.565Z,95.30
2019-02-17T16:40:19.053Z,95.70
2019-02-17T16:42:48.025Z,96.10
2019-02-17T16:45:17.078Z,96.60
2019-02-17T16:47:45.957Z,96.70
2019-02-17T16:50:26.215Z,97.20
2019-02-17T16:52:55.037Z,97.60
2019-02-17T16:55:23.806Z,98.10
2019-02-17T16:57:52.591Z,98.40
2019-02-17T17:00:22.979Z,98.60
2019-02-17T17:02:53.149Z,98.60
2019-02-17T17:05:23.160Z,99.20
2019-02-17T17:07:51.943Z,99.30
2019-02-17T17:10:20.675Z,99.30
2019-02-17T17:12:49.489Z,99.70
2019-02-17T17:15:18.237Z,99.80
2019-02-17T17:17:46.977Z,99.90
2019-02-17T17:20:18.674Z,99.90
2019-02-17T17:22:47.387Z,99.90
2019-02-17T17:25:16.090Z,99.90
2019-02-17T17:27:45.764Z,99.90
2019-02-17T17:30:16.500Z,99.90
2019-02-17T17:32:45.262Z,99.90
2019-02-17T17:35:14.802Z,99.90
2019-02-17T17:37:43.672Z,99.90
2019-02-17T17:40:16.390Z,99.90
2019-02-17T17:42:45.151Z,99.90
2019-02-17T17:45:23.302Z,99.90
2019-02-17T17:47:52.136Z,99.90
2019-02-17T17:50:20.886Z,99.90
2019-02-17T17:52:49.519Z,99.90
2019-02-17T17:55:18.230Z,99.90
2019-02-17T17:57:46.905Z,99.90
2019-02-17T18:00:20.523Z,99.90
2019-02-17T18:02:49.254Z,99.90
2019-02-17T18:05:17.958Z,99.90
2019-02-17T18:07:46.642Z,99.90
2019-02-17T18:10:16.352Z,99.90
2019-02-17T18:12:45.090Z,99.90
2019-02-17T18:15:18.653Z,99.90
2019-02-17T18:17:53.813Z,99.90
2019-02-17T18:20:17.575Z,99.90
2019-02-17T18:22:46.163Z,99.90
2019-02-17T18:25:15.549Z,99.90
2019-02-17T18:27:44.209Z,99.90
2019-02-17T18:30:16.735Z,99.90
2019-02-17T18:32:45.807Z,99.90
2019-02-17T18:35:19.711Z,99.90
2019-02-17T18:37:44.805Z,99.90
2019-02-17T18:40:15.305Z,99.90
2019-02-17T18:42:44.047Z,99.90
2019-02-17T18:45:16.866Z,99.90
2019-02-17T18:47:45.734Z,99.90
2019-02-17T18:50:16.308Z,99.90
2019-02-17T18:52:44.934Z,99.90
2019-02-17T18:55:14.157Z,99.90
2019-02-17T18:57:49.998Z,99.90
2019-02-17T19:00:27.176Z,99.90
2019-02-17T19:02:56.274Z,99.90
2019-02-17T19:05:31.928Z,99.90
2019-02-17T19:07:55.155Z,99.90
2019-02-17T19:10:23.733Z,99.90
2019-02-17T19:12:52.327Z,99.90
2019-02-17T19:15:24.596Z,99.90
2019-02-17T19:17:53.185Z,99.90
2019-02-17T19:20:33.567Z,99.90
2019-02-17T19:23:02.393Z,99.90
2019-02-17T19:25:31.246Z,99.90
2019-02-17T19:28:03.603Z,99.90
2019-02-17T19:30:31.673Z,99.90
2019-02-17T19:33:00.259Z,99.90
2019-02-17T19:35:29.055Z,99.90
2019-02-17T19:37:57.786Z,99.90
2019-02-17T19:40:26.398Z,99.90
2019-02-17T19:42:55.034Z,99.90
2019-02-17T19:45:23.700Z,99.90
2019-02-17T19:47:52.259Z,99.90
2019-02-17T19:50:20.922Z,99.90
2019-02-17T19:52:49.542Z,99.90
2019-02-17T19:55:18.179Z,99.90
2019-02-17T19:57:47.089Z,99.90
2019-02-17T20:00:22.421Z,99.90
2019-02-17T20:02:52.909Z,99.90
2019-02-17T20:05:26.201Z,99.90
2019-02-17T20:07:54.827Z,99.90
2019-02-17T20:10:23.475Z,99.90
2019-02-17T20:12:52.373Z,99.90
2019-02-17T20:15:22.223Z,99.90
2019-02-17T20:17:51.048Z,99.90
2019-02-17T20:20:19.804Z,99.90
2019-02-17T20:22:48.362Z,99.90
2019-02-17T20:25:17.025Z,99.90
2019-02-17T20:27:45.645Z,99.90
2019-02-17T20:30:15.181Z,99.90
2019-02-17T20:32:43.772Z,99.90
2019-02-17T20:35:12.554Z,99.90
2019-02-17T20:37:41.258Z,99.90
2019-02-17T20:40:14.942Z,99.90
2019-02-17T20:42:43.705Z,99.90
2019-02-17T20:45:13.508Z,99.90
2019-02-17T20:47:42.330Z,99.90
2019-02-17T20:50:19.412Z,99.90
2019-02-17T20:52:48.345Z,99.90
2019-02-17T20:55:17.008Z,99.90
2019-02-17T20:57:45.801Z,99.90
2019-02-17T21:00:17.440Z,99.90
2019-02-17T21:02:46.143Z,99.90
2019-02-17T21:05:15.192Z,99.90
2019-02-17T21:07:44.117Z,99.90
2019-02-17T21:10:16.478Z,99.90
2019-02-17T21:12:45.153Z,99.90
2019-02-17T21:15:16.594Z,99.90
2019-02-17T21:17:45.255Z,99.90
2019-02-17T21:20:15.854Z,99.90
2019-02-17T21:22:44.617Z,99.90
2019-02-17T21:25:14.443Z,99.90
2019-02-17T21:27:43.136Z,99.90
2019-02-17T21:30:17.697Z,99.90
2019-02-17T21:32:46.915Z,99.90
2019-02-17T21:35:16.945Z,99.90
2019-02-17T21:37:45.684Z,99.90
2019-02-17T21:40:14.826Z,99.90
2019-02-17T21:42:43.527Z,99.90
2019-02-17T21:45:13.159Z,99.90
2019-02-17T21:47:41.895Z,99.90
2019-02-17T21:50:12.658Z,99.90
2019-02-17T21:52:42.122Z,99.90
2019-02-17T21:55:15.132Z,99.90
2019-02-17T21:57:43.945Z,99.90
2019-02-17T22:00:16.460Z,99.90
2019-02-17T22:02:45.421Z,99.90
2019-02-17T22:05:14.221Z,99.90
2019-02-17T22:07:42.912Z,99.90
2019-02-17T22:10:16.146Z,99.90
2019-02-17T22:12:44.881Z,99.90
2019-02-17T22:15:18.257Z,99.90
2019-02-17T22:17:46.841Z,99.90
2019-02-17T22:20:15.573Z,99.90
2019-02-17T22:22:44.183Z,99.90
2019-02-17T22:25:14.634Z,99.90
2019-02-17T22:27:43.606Z,99.90
2019-02-17T22:30:13.693Z,99.90
2019-02-17T22:32:42.372Z,99.90
2019-02-17T22:35:11.099Z,99.90
2019-02-17T22:37:39.993Z,99.90
2019-02-17T22:40:11.677Z,99.90
2019-02-17T22:42:40.320Z,99.90
2019-02-17T22:45:10.744Z,99.90
2019-02-17T22:47:39.309Z,99.90
2019-02-17T22:50:14.106Z,99.90
2019-02-17T22:52:42.997Z,99.90
2019-02-17T22:55:13.130Z,99.90
2019-02-17T22:57:41.763Z,99.90
2019-02-17T23:00:48.045Z,99.90
2019-02-17T23:03:17.111Z,99.90
2019-02-17T23:05:45.854Z,99.90
2019-02-17T23:08:14.569Z,99.90
2019-02-17T23:10:43.301Z,99.90
2019-02-17T23:13:11.945Z,99.90
2019-02-17T23:15:40.609Z,99.90
2019-02-17T23:18:09.247Z,99.90
2019-02-17T23:20:37.986Z,99.90
2019-02-17T23:23:06.700Z,99.90
2019-02-17T23:25:35.373Z,99.90
2019-02-17T23:28:04.062Z,99.90
2019-02-17T23:30:32.655Z,99.90
2019-02-17T23:33:01.281Z,99.90
2019-02-17T23:35:29.933Z,99.90
2019-02-17T23:37:58.630Z,99.90
2019-02-17T23:40:27.419Z,99.90
2019-02-17T23:42:56.064Z,99.90
2019-02-17T23:45:24.661Z,99.90
2019-02-17T23:47:53.350Z,99.90
2019-02-17T23:50:21.925Z,99.90
2019-02-17T23:52:50.489Z,99.90
2019-02-17T23:55:19.225Z,99.90
2019-02-17T23:57:47.925Z,99.90
